createdAt,value
2018-01-19T00:00:56.012Z,90.03
2018-01-19T00:02:05.800Z,90.03
2018-01-19T00:03:15.591Z,90.32
2018-01-19T00:04:25.639Z,90.22
2018-01-19T00:05:35.710Z,90.42
2018-01-19T00:06:45.765Z,90.13
2018-01-19T00:07:55.816Z,90.22
2018-01-19T00:09:05.607Z,90.22
2018-01-19T00:10:15.671Z,90.03
2018-01-19T00:11:25.736Z,90.8
2018-01-19T00:12:35.520Z,90.61
2018-01-19T00:13:45.564Z,90.32
2018-01-19T00:14:55.356Z,90.03
2018-01-19T00:16:05.476Z,90.03
2018-01-19T00:17:15.562Z,90.42
2018-01-19T00:18:26.665Z,90.22
2018-01-19T00:19:36.444Z,90.32
2018-01-19T00:20:46.229Z,90.42
2018-01-19T00:21:56.299Z,90.03
2018-01-19T00:23:06.346Z,90.32
2018-01-19T00:24:16.695Z,90.32
2018-01-19T00:25:26.792Z,90.22
2018-01-19T00:26:36.844Z,90.13
2018-01-19T00:27:46.903Z,90.22
2018-01-19T00:28:56.943Z,90.13
2018-01-19T00:30:07.145Z,90.22
2018-01-19T00:31:17.189Z,90.22
2018-01-19T00:32:26.774Z,90.32
2018-01-19T00:33:36.802Z,90.22
2018-01-19T00:34:47.451Z,89.94
2018-01-19T00:35:57.255Z,90.13
2018-01-19T00:37:07.148Z,90.03
2018-01-19T00:38:17.244Z,90.42
2018-01-19T00:39:27.290Z,90.22
2018-01-19T00:40:37.083Z,89.99
2018-01-19T00:41:47.108Z,90.08
2018-01-19T00:42:57.156Z,90.28
2018-01-19T00:44:07.222Z,90.37
2018-01-19T00:45:16.998Z,90.28
2018-01-19T00:46:26.782Z,90.18
2018-01-19T00:47:36.565Z,90.08
2018-01-19T00:48:46.625Z,89.99
2018-01-19T00:49:56.677Z,90.08
2018-01-19T00:51:06.731Z,90.18
2018-01-19T00:52:16.260Z,89.8
2018-01-19T00:53:26.321Z,89.8
2018-01-19T00:54:36.376Z,89.7
2018-01-19T00:55:46.411Z,89.8
2018-01-19T00:56:55.992Z,90.18
2018-01-19T00:58:06.047Z,90.08
2018-01-19T00:59:16.093Z,89.89
2018-01-19T01:00:26.147Z,90.18
2018-01-19T01:01:36.244Z,90.08
2018-01-19T01:02:46.025Z,89.89
2018-01-19T01:03:56.073Z,89.99
2018-01-19T01:05:06.140Z,89.8
2018-01-19T01:06:15.657Z,89.89
2018-01-19T01:07:25.489Z,89.89
2018-01-19T01:08:35.275Z,89.99
2018-01-19T01:09:45.072Z,89.99
2018-01-19T01:10:54.875Z,89.89
2018-01-19T01:12:04.963Z,89.89
2018-01-19T01:13:15.073Z,89.89
2018-01-19T01:14:25.115Z,89.89
2018-01-19T01:15:35.170Z,89.89
2018-01-19T01:16:45.237Z,89.99
2018-01-19T01:17:55.057Z,89.99
2018-01-19T01:19:04.351Z,89.99
2018-01-19T01:20:14.176Z,89.99
2018-01-19T01:21:24.239Z,89.99
2018-01-19T01:22:34.298Z,89.99
2018-01-19T01:23:44.348Z,89.99
2018-01-19T01:24:54.450Z,90.08
2018-01-19T01:26:04.232Z,89.89
2018-01-19T01:27:14.264Z,89.99
2018-01-19T01:28:24.320Z,89.89
2018-01-19T01:29:34.365Z,89.89
2018-01-19T01:30:44.439Z,89.89
2018-01-19T01:31:54.219Z,89.99
2018-01-19T01:33:03.741Z,89.99
2018-01-19T01:34:13.531Z,90.18
2018-01-19T01:35:23.056Z,89.99
2018-01-19T01:36:33.171Z,89.99
2018-01-19T01:37:43.200Z,89.89
2018-01-19T01:38:53.261Z,89.89
2018-01-19T01:40:03.314Z,89.89
2018-01-19T01:41:13.093Z,89.99
2018-01-19T01:42:22.628Z,89.89
2018-01-19T01:43:32.677Z,89.94
2018-01-19T01:44:42.711Z,89.89
2018-01-19T01:45:52.783Z,89.99
2018-01-19T01:47:02.558Z,89.94
2018-01-19T01:48:12.350Z,90.28
2018-01-19T01:49:22.401Z,89.99
2018-01-19T01:50:32.470Z,89.99
2018-01-19T01:51:42.451Z,90.18
2018-01-19T01:52:52.562Z,90.28
2018-01-19T01:54:02.350Z,90.28
2018-01-19T01:55:12.395Z,90.08
2018-01-19T01:56:22.446Z,89.99
2018-01-19T01:57:32.491Z,89.85
2018-01-19T01:58:42.533Z,89.99
2018-01-19T01:59:52.568Z,90.08
2018-01-19T02:01:02.353Z,90.14
2018-01-19T02:02:12.146Z,90.28
2018-01-19T02:03:23.201Z,90.04
2018-01-19T02:04:33.240Z,89.94
2018-01-19T02:05:43.427Z,90.23
2018-01-19T02:06:52.973Z,90.23
2018-01-19T02:08:03.021Z,90.23
2018-01-19T02:09:13.057Z,90.14
2018-01-19T02:10:23.089Z,89.94
2018-01-19T02:11:33.138Z,90.33
2018-01-19T02:12:43.179Z,89.94
2018-01-19T02:13:53.233Z,89.94
2018-01-19T02:15:03.277Z,90.23
2018-01-19T02:16:13.322Z,90.23
2018-01-19T02:17:23.778Z,89.94
2018-01-19T02:18:33.573Z,90.04
2018-01-19T02:19:43.614Z,90.23
2018-01-19T02:20:53.401Z,90.04
2018-01-19T02:22:03.454Z,90.04
2018-01-19T02:23:13.039Z,89.94
2018-01-19T02:24:23.094Z,90.23
2018-01-19T02:25:33.145Z,90.23
2018-01-19T02:26:42.934Z,89.94
2018-01-19T02:27:53.022Z,90.14
2018-01-19T02:29:03.071Z,90.14
2018-01-19T02:30:13.113Z,89.94
2018-01-19T02:31:23.164Z,89.94
2018-01-19T02:32:33.213Z,90.04
2018-01-19T02:33:43.257Z,90.14
2018-01-19T02:34:53.060Z,89.94
2018-01-19T02:36:03.113Z,90.14
2018-01-19T02:37:13.169Z,89.94
2018-01-19T02:38:22.417Z,90.23
2018-01-19T02:39:32.209Z,90.04
2018-01-19T02:40:42.257Z,90.04
2018-01-19T02:41:52.049Z,89.94
2018-01-19T02:43:01.859Z,90.04
2018-01-19T02:44:11.904Z,90.04
2018-01-19T02:45:21.690Z,90.04
2018-01-19T02:46:31.732Z,89.94
2018-01-19T02:47:41.269Z,90.14
2018-01-19T02:48:51.072Z,90.14
2018-01-19T02:50:01.133Z,90.23
2018-01-19T02:51:11.177Z,90.04
2018-01-19T02:52:21.276Z,90.04
2018-01-19T02:53:31.073Z,89.94
2018-01-19T02:54:41.119Z,89.94
2018-01-19T02:55:50.638Z,89.99
2018-01-19T02:57:00.688Z,89.75
2018-01-19T02:58:10.788Z,89.94
2018-01-19T02:59:20.839Z,90.14
2018-01-19T03:00:30.366Z,90.23
2018-01-19T03:01:40.208Z,90.14
2018-01-19T03:02:50.256Z,90.04
2018-01-19T03:34:11.403Z,85.21
2018-01-19T03:35:21.443Z,85.68
2018-01-19T03:36:31.252Z,87.2
2018-01-19T03:37:41.301Z,87.87
2018-01-19T03:38:51.075Z,88.53
2018-01-19T03:40:01.151Z,89.48
2018-01-19T03:41:11.209Z,89.81
2018-01-19T03:42:21.266Z,89.9
2018-01-19T03:43:31.294Z,90.09
2018-01-19T03:44:41.340Z,90.19
2018-01-19T03:45:51.437Z,90.95
2018-01-19T03:47:01.486Z,90.95
2018-01-19T03:48:11.542Z,90.52
2018-01-19T03:49:21.582Z,90.61
2018-01-19T03:50:31.635Z,90.99
2018-01-19T03:51:41.481Z,90.99
2018-01-19T03:52:51.535Z,90.56
2018-01-19T03:54:01.586Z,90.37
2018-01-19T03:55:11.626Z,90.28
2018-01-19T03:56:21.417Z,90.75
2018-01-19T03:57:31.516Z,90
2018-01-19T03:58:41.561Z,90.28
2018-01-19T03:59:51.332Z,90.47
2018-01-19T04:01:01.126Z,90.28
2018-01-19T04:02:11.171Z,90.37
2018-01-19T04:03:21.003Z,90.37
2018-01-19T04:04:31.050Z,90.56
2018-01-19T04:05:40.578Z,90.42
2018-01-19T04:06:50.613Z,89.94
2018-01-19T04:08:00.144Z,90.7
2018-01-19T04:09:10.196Z,90.14
2018-01-19T04:10:20.250Z,89.94
2018-01-19T04:11:30.930Z,89.94
2018-01-19T04:12:40.997Z,89.94
2018-01-19T04:13:50.780Z,90.14
2018-01-19T04:15:00.622Z,90.33
2018-01-19T04:16:10.668Z,90.14
2018-01-19T04:17:20.445Z,90.04
2018-01-19T04:18:30.481Z,90.23
2018-01-19T04:19:40.517Z,90.14
2018-01-19T04:20:50.566Z,90.23
2018-01-19T04:22:00.613Z,90.14
2018-01-19T04:23:10.417Z,90.04
2018-01-19T04:24:20.468Z,89.75
2018-01-19T04:25:30.274Z,89.94
2018-01-19T04:26:40.393Z,90.04
2018-01-19T04:27:50.464Z,89.85
2018-01-19T04:29:00.499Z,89.99
2018-01-19T04:30:10.544Z,89.94
2018-01-19T04:31:20.330Z,89.89
2018-01-19T04:32:30.469Z,89.89
2018-01-19T04:33:40.254Z,89.99
2018-01-19T04:34:50.306Z,89.85
2018-01-19T04:36:00.360Z,89.85
2018-01-19T04:37:10.152Z,89.85
2018-01-19T04:38:19.675Z,89.8
2018-01-19T04:39:29.717Z,89.94
2018-01-19T04:40:39.767Z,89.94
2018-01-19T04:41:49.829Z,89.89
2018-01-19T04:42:59.874Z,89.85
2018-01-19T04:44:09.961Z,89.99
2018-01-19T04:45:20.016Z,89.85
2018-01-19T04:46:30.075Z,89.66
2018-01-19T04:47:40.184Z,90.14
2018-01-19T04:48:50.231Z,89.85
2018-01-19T04:50:00.329Z,90.14
2018-01-19T04:51:10.377Z,89.66
2018-01-19T04:52:20.162Z,89.94
2018-01-19T04:53:31.361Z,89.94
2018-01-19T04:54:41.395Z,90.14
2018-01-19T04:55:51.491Z,89.85
2018-01-19T04:57:01.530Z,89.85
2018-01-19T04:58:11.326Z,89.89
2018-01-19T04:59:21.097Z,89.85
2018-01-19T05:00:31.135Z,90.28
2018-01-19T05:01:41.201Z,90.23
2018-01-19T05:02:51.240Z,90.33
2018-01-19T05:04:01.290Z,89.85
2018-01-19T05:05:11.350Z,90.23
2018-01-19T05:06:21.393Z,89.85
2018-01-19T05:07:31.498Z,89.94
2018-01-19T05:08:41.285Z,89.85
2018-01-19T05:09:51.339Z,89.85
2018-01-19T05:11:01.383Z,89.85
2018-01-19T05:12:11.215Z,90.23
2018-01-19T05:13:21.275Z,90.04
2018-01-19T05:14:31.325Z,90.04
2018-01-19T05:15:41.378Z,90.23
2018-01-19T05:16:51.170Z,89.94
2018-01-19T05:18:00.697Z,90.18
2018-01-19T05:19:10.732Z,89.94
2018-01-19T05:20:20.523Z,89.94
2018-01-19T05:21:30.572Z,89.94
2018-01-19T05:22:40.373Z,89.99
2018-01-19T05:23:50.423Z,90.08
2018-01-19T05:25:00.528Z,90.14
2018-01-19T05:26:10.582Z,90.08
2018-01-19T05:27:20.638Z,90.18
2018-01-19T05:28:30.436Z,90.14
2018-01-19T05:29:40.533Z,90.08
2018-01-19T05:30:50.615Z,89.99
2018-01-19T05:32:00.656Z,89.94
2018-01-19T05:33:10.698Z,90.18
2018-01-19T05:34:20.738Z,89.99
2018-01-19T05:35:30.516Z,89.89
2018-01-19T05:36:40.299Z,90.18
2018-01-19T05:37:50.349Z,90.18
2018-01-19T05:39:00.397Z,90.18
2018-01-19T05:40:10.423Z,89.89
2018-01-19T05:41:20.485Z,90.14
2018-01-19T05:42:30.579Z,90.18
2018-01-19T05:43:40.632Z,90.18
2018-01-19T05:44:50.681Z,89.89
2018-01-19T05:46:00.731Z,90.18
2018-01-19T05:47:10.796Z,90.08
2018-01-19T05:48:20.837Z,89.8
2018-01-19T05:49:30.627Z,89.8
2018-01-19T05:50:40.682Z,89.99
2018-01-19T05:51:50.743Z,89.89
2018-01-19T05:53:00.791Z,89.85
2018-01-19T05:54:10.850Z,90.23
2018-01-19T05:55:20.906Z,90.18
2018-01-19T05:56:30.948Z,90.14
2018-01-19T05:57:41.000Z,89.8
2018-01-19T05:58:50.847Z,90.14
2018-01-19T06:00:00.642Z,90.23
2018-01-19T06:01:10.696Z,89.85
2018-01-19T06:02:20.755Z,89.99
2018-01-19T06:03:30.830Z,90.14
2018-01-19T06:04:40.864Z,90.14
2018-01-19T06:05:50.993Z,90.04
2018-01-19T06:07:01.044Z,90.14
2018-01-19T06:08:11.091Z,89.94
2018-01-19T06:09:20.882Z,90.33
2018-01-19T06:10:30.934Z,89.94
2018-01-19T06:11:41.012Z,90.04
2018-01-19T06:12:51.067Z,89.66
2018-01-19T06:14:01.115Z,89.85
2018-01-19T06:15:11.169Z,90.23
2018-01-19T06:16:21.211Z,90.14
2018-01-19T06:17:31.497Z,90.14
2018-01-19T06:18:41.544Z,90.14
2018-01-19T06:19:51.588Z,90.14
2018-01-19T06:21:01.630Z,90.04
2018-01-19T06:22:11.692Z,90.04
2018-01-19T06:23:21.840Z,90.04
2018-01-19T06:24:31.380Z,90.04
2018-01-19T06:25:41.407Z,90.23
2018-01-19T06:26:51.204Z,89.94
2018-01-19T06:28:01.261Z,90.23
2018-01-19T06:29:11.332Z,90.23
2018-01-19T06:30:21.374Z,89.85
2018-01-19T06:31:31.417Z,89.85
2018-01-19T06:32:41.444Z,89.85
2018-01-19T06:33:51.501Z,89.85
2018-01-19T06:35:01.588Z,89.94
2018-01-19T06:36:11.653Z,89.94
2018-01-19T06:37:21.710Z,89.85
2018-01-19T06:38:31.740Z,89.75
2018-01-19T06:39:41.518Z,90.04
2018-01-19T06:40:51.369Z,89.94
2018-01-19T06:42:01.419Z,89.94
2018-01-19T06:43:11.464Z,90.14
2018-01-19T06:44:21.247Z,90.14
2018-01-19T06:45:31.295Z,90.14
2018-01-19T06:46:41.074Z,90.04
2018-01-19T06:47:50.865Z,89.9
2018-01-19T06:49:00.897Z,90.19
2018-01-19T06:50:10.696Z,90.04
2018-01-19T06:51:20.512Z,89.61
2018-01-19T06:52:30.303Z,89.94
2018-01-19T06:53:40.358Z,90.09
2018-01-19T06:54:50.141Z,89.94
2018-01-19T06:56:00.190Z,90
2018-01-19T06:57:09.976Z,89.71
2018-01-19T06:58:20.040Z,89.71
2018-01-19T06:59:30.089Z,90
2018-01-19T07:00:39.866Z,90.09
2018-01-19T07:01:49.921Z,89.52
2018-01-19T07:02:59.840Z,89.52
2018-01-19T07:04:09.890Z,89.71
2018-01-19T07:05:19.939Z,89.61
2018-01-19T07:06:29.983Z,89.52
2018-01-19T07:07:40.030Z,89.23
2018-01-19T07:08:50.073Z,89.61
2018-01-19T07:09:59.658Z,89.71
2018-01-19T07:11:09.710Z,89.61
2018-01-19T07:12:19.489Z,89.33
2018-01-19T07:13:29.545Z,89.52
2018-01-19T07:14:39.586Z,89.33
2018-01-19T07:15:49.839Z,89.42
2018-01-19T07:16:59.890Z,89.14
2018-01-19T07:18:09.932Z,89.33
2018-01-19T07:19:19.729Z,89.33
2018-01-19T07:20:29.530Z,89.71
2018-01-19T07:21:39.642Z,89.52
2018-01-19T07:22:49.439Z,89.33
2018-01-19T07:23:59.491Z,89.04
2018-01-19T07:25:09.549Z,89.33
2018-01-19T07:26:19.328Z,89.42
2018-01-19T07:27:29.366Z,89.71
2018-01-19T07:28:39.153Z,89.23
2018-01-19T07:29:48.675Z,89.33
2018-01-19T07:30:58.462Z,89.71
2018-01-19T07:32:08.554Z,89.52
2018-01-19T07:33:18.602Z,89.71
2018-01-19T07:34:28.656Z,89.52
2018-01-19T07:35:38.543Z,89.52
2018-01-19T07:36:48.604Z,89.33
2018-01-19T07:37:58.375Z,89.33
2018-01-19T07:39:08.428Z,89.42
2018-01-19T07:40:18.224Z,89.52
2018-01-19T07:41:28.263Z,89.52
2018-01-19T07:42:38.335Z,89.52
2018-01-19T07:43:48.381Z,89.33
2018-01-19T07:44:58.432Z,89.52
2018-01-19T07:46:08.476Z,89.52
2018-01-19T07:47:18.015Z,89.42
2018-01-19T07:48:27.816Z,89.42
2018-01-19T07:49:37.608Z,89.42
2018-01-19T07:50:47.663Z,89.42
2018-01-19T07:51:57.743Z,89.52
2018-01-19T07:53:07.529Z,89.61
2018-01-19T07:54:17.309Z,89.42
2018-01-19T07:55:27.352Z,89.23
2018-01-19T07:56:37.390Z,89.71
2018-01-19T07:57:47.434Z,89.33
2018-01-19T07:58:57.473Z,89.71
2018-01-19T08:00:07.013Z,89.61
2018-01-19T08:01:17.061Z,89.52
2018-01-19T08:02:27.114Z,89.71
2018-01-19T08:03:37.191Z,89.61
2018-01-19T08:04:47.234Z,89.42
2018-01-19T08:05:57.278Z,89.33
2018-01-19T08:07:07.313Z,89.33
2018-01-19T08:08:17.354Z,89.38
2018-01-19T08:09:27.453Z,89.28
2018-01-19T08:10:37.283Z,89.28
2018-01-19T08:11:47.079Z,89.47
2018-01-19T08:12:56.849Z,89.38
2018-01-19T08:14:06.903Z,89.28
2018-01-19T08:15:17.012Z,89.19
2018-01-19T08:16:27.063Z,89.28
2018-01-19T08:17:37.157Z,89.28
2018-01-19T08:18:46.949Z,89.67
2018-01-19T08:19:57.011Z,89.38
2018-01-19T08:21:07.067Z,89.86
2018-01-19T08:22:17.128Z,89.47
2018-01-19T08:23:27.166Z,89.38
2018-01-19T08:24:36.947Z,89.57
2018-01-19T08:25:46.727Z,89.86
2018-01-19T08:26:56.769Z,89.57
2018-01-19T08:28:06.558Z,89.67
2018-01-19T08:29:16.399Z,89.28
2018-01-19T08:30:26.450Z,89.38
2018-01-19T08:31:36.513Z,89.28
2018-01-19T08:32:46.603Z,89.38
2018-01-19T08:33:56.418Z,89.19
2018-01-19T08:35:06.469Z,89.47
2018-01-19T08:36:16.514Z,89.09
2018-01-19T08:37:26.575Z,88.9
2018-01-19T08:38:36.468Z,88.71
2018-01-19T08:39:46.542Z,89
2018-01-19T08:40:56.596Z,88.71
2018-01-19T08:42:06.648Z,88.62
2018-01-19T08:43:16.695Z,88.62
2018-01-19T08:44:26.811Z,88
2018-01-19T08:45:36.856Z,88.28
2018-01-19T08:46:46.899Z,88.28
2018-01-19T08:47:56.946Z,88.47
2018-01-19T08:49:06.569Z,88.28
2018-01-19T08:50:16.638Z,88.38
2018-01-19T08:51:26.688Z,88.76
2018-01-19T08:52:36.468Z,89.28
2018-01-19T08:53:46.267Z,88.81
2018-01-19T08:54:56.309Z,88.62
2018-01-19T08:56:06.259Z,88.43
2018-01-19T08:57:16.056Z,88.62
2018-01-19T08:58:26.135Z,88.71
2018-01-19T08:59:35.672Z,88.81
2018-01-19T09:00:45.706Z,88.81
2018-01-19T09:01:55.519Z,89.09
2018-01-19T09:03:05.616Z,88.9
2018-01-19T09:04:15.686Z,88.81
2018-01-19T09:05:25.725Z,88.19
2018-01-19T09:06:35.774Z,88.38
2018-01-19T09:07:45.882Z,88.38
2018-01-19T09:08:55.978Z,88.47
2018-01-19T09:10:06.053Z,88
2018-01-19T09:11:16.102Z,87.9
2018-01-19T09:12:27.192Z,87.81
2018-01-19T09:13:37.312Z,87.9
2018-01-19T09:14:47.359Z,87.52
2018-01-19T09:15:57.464Z,87.52
2018-01-19T09:17:07.526Z,87.76
2018-01-19T09:18:17.572Z,87.28
2018-01-19T09:19:27.629Z,87.38
2018-01-19T09:20:37.431Z,87.57
2018-01-19T09:21:47.486Z,87.66
2018-01-19T09:22:58.543Z,87.28
2018-01-19T09:24:08.594Z,87.47
2018-01-19T09:25:18.384Z,87.57
2018-01-19T09:26:28.478Z,87.47
2018-01-19T09:27:38.447Z,87.61
2018-01-19T09:28:48.240Z,87.61
2018-01-19T09:29:58.087Z,87.61
2018-01-19T09:31:08.198Z,87.32
2018-01-19T09:32:17.990Z,87.52
2018-01-19T09:33:28.046Z,87.23
2018-01-19T09:34:38.119Z,87.71
2018-01-19T09:35:48.122Z,87.9
2018-01-19T09:36:58.171Z,88.28
2018-01-19T09:38:08.219Z,87.8
2018-01-19T09:39:18.010Z,87.8
2018-01-19T09:40:28.048Z,87.32
2018-01-19T09:41:38.102Z,87.23
2018-01-19T09:42:47.940Z,86.8
2018-01-19T09:43:57.986Z,87.27
2018-01-19T09:45:07.532Z,86.8
2018-01-19T09:46:17.584Z,86.61
2018-01-19T09:47:27.643Z,86.46
2018-01-19T09:48:37.467Z,86.27
2018-01-19T09:49:47.522Z,87.03
2018-01-19T09:50:57.578Z,86.94
2018-01-19T09:52:07.119Z,86.46
2018-01-19T09:53:16.909Z,86.46
2018-01-19T09:54:26.999Z,86.55
2018-01-19T09:55:37.050Z,86.75
2018-01-19T09:56:46.853Z,86.55
2018-01-19T09:57:56.906Z,87.36
2018-01-19T09:59:06.709Z,86.98
2018-01-19T10:00:16.349Z,86.69
2018-01-19T10:01:26.141Z,86.51
2018-01-19T10:02:36.251Z,87.07
2018-01-19T10:03:46.040Z,87.36
2018-01-19T10:04:56.092Z,86.79
2018-01-19T10:06:05.888Z,86.98
2018-01-19T10:07:15.681Z,87.07
2018-01-19T10:08:25.736Z,87.07
2018-01-19T10:09:35.535Z,86.88
2018-01-19T10:10:45.576Z,86.69
2018-01-19T10:11:55.618Z,87.36
2018-01-19T10:13:05.756Z,86.79
2018-01-19T10:14:15.813Z,86.88
2018-01-19T10:15:25.860Z,87.02
2018-01-19T10:16:35.927Z,87.02
2018-01-19T10:17:46.008Z,86.65
2018-01-19T10:18:56.172Z,86.55
2018-01-19T10:20:05.716Z,86.93
2018-01-19T10:21:15.253Z,86.74
2018-01-19T10:22:25.308Z,87.4
2018-01-19T10:23:35.378Z,87.31
2018-01-19T10:24:45.291Z,86.93
2018-01-19T10:25:55.085Z,87.02
2018-01-19T10:27:05.167Z,86.74
2018-01-19T10:28:14.975Z,86.69
2018-01-19T10:29:25.069Z,86.21
2018-01-19T10:30:35.130Z,85.83
2018-01-19T10:31:45.186Z,85.87
2018-01-19T10:32:55.240Z,85.77
2018-01-19T10:34:05.075Z,85.87
2018-01-19T10:35:15.135Z,85.97
2018-01-19T10:36:25.799Z,86.16
2018-01-19T10:37:35.851Z,86.35
2018-01-19T10:38:45.703Z,86.54
2018-01-19T10:39:55.766Z,86.44
2018-01-19T10:41:05.827Z,86.44
2018-01-19T10:42:15.886Z,86.39
2018-01-19T10:43:25.941Z,85.72
2018-01-19T10:44:35.740Z,85.34
2018-01-19T10:45:45.560Z,85.29
2018-01-19T10:46:55.616Z,85.19
2018-01-19T10:48:05.675Z,85.96
2018-01-19T10:49:15.733Z,85.86
2018-01-19T10:50:25.590Z,86.1
2018-01-19T10:51:35.643Z,86.77
2018-01-19T10:52:45.701Z,86.01
2018-01-19T10:53:55.737Z,86.1
2018-01-19T10:55:05.784Z,87.15
2018-01-19T10:56:15.627Z,86.2
2018-01-19T10:57:25.841Z,86.2
2018-01-19T10:58:35.890Z,85.91
2018-01-19T10:59:45.947Z,85.38
2018-01-19T11:00:56.051Z,85.38
2018-01-19T11:02:05.945Z,85.77
2018-01-19T11:03:16.027Z,85.96
2018-01-19T11:04:25.841Z,85.48
2018-01-19T11:05:35.909Z,85.38
2018-01-19T11:06:46.922Z,85.48
2018-01-19T11:07:56.960Z,85.58
2018-01-19T11:09:07.015Z,85.48
2018-01-19T11:10:16.863Z,85.38
2018-01-19T11:11:26.927Z,85.86
2018-01-19T11:12:36.994Z,86.43
2018-01-19T11:13:47.050Z,86.34
2018-01-19T11:14:57.101Z,86.1
2018-01-19T11:16:06.955Z,86.15
2018-01-19T11:17:16.771Z,86.63
2018-01-19T11:18:26.814Z,86.24
2018-01-19T11:19:36.871Z,86.24
2018-01-19T11:20:46.927Z,86.34
2018-01-19T11:21:56.979Z,86.34
2018-01-19T11:23:06.773Z,86.82
2018-01-19T11:24:16.831Z,86.34
2018-01-19T11:25:26.886Z,86.15
2018-01-19T11:26:36.933Z,86.53
2018-01-19T11:27:47.034Z,86.24
2018-01-19T11:28:56.589Z,86.53
2018-01-19T11:30:06.661Z,86.72
2018-01-19T11:31:16.720Z,86.63
2018-01-19T11:32:26.511Z,86.15
2018-01-19T11:33:36.615Z,86.72
2018-01-19T11:34:46.656Z,87.73
2018-01-19T11:35:56.721Z,87.63
2018-01-19T11:37:06.786Z,87.06
2018-01-19T11:38:16.858Z,86.58
2018-01-19T11:39:26.707Z,87.01
2018-01-19T11:40:36.762Z,86.77
2018-01-19T11:41:46.839Z,86.49
2018-01-19T11:42:56.898Z,86.68
2018-01-19T11:44:06.797Z,86.87
2018-01-19T11:45:16.902Z,86.49
2018-01-19T11:46:26.965Z,86.87
2018-01-19T11:47:39.487Z,86.87
2018-01-19T11:48:51.474Z,86.77
2018-01-19T11:50:01.523Z,87.06
2018-01-19T11:51:11.689Z,87.15
2018-01-19T11:52:21.544Z,86.68
2018-01-19T11:53:31.710Z,86.49
2018-01-19T11:54:41.781Z,86.68
2018-01-19T11:55:51.912Z,86.96
2018-01-19T11:57:02.070Z,87.25
2018-01-19T11:58:12.130Z,87.25
2018-01-19T11:59:22.192Z,87.06
2018-01-19T12:00:32.076Z,87.25
2018-01-19T12:01:42.136Z,87.35
2018-01-19T12:02:51.953Z,87.06
2018-01-19T12:04:01.750Z,87.25
2018-01-19T12:05:11.806Z,86.87
2018-01-19T12:06:21.887Z,87.02
2018-01-19T12:07:31.984Z,87.35
2018-01-19T12:08:41.347Z,86.87
2018-01-19T12:09:51.395Z,87.54
2018-01-19T12:11:01.449Z,86.68
2018-01-19T12:12:11.239Z,86.68
2018-01-19T12:13:21.297Z,87.15
2018-01-19T12:14:31.408Z,86.87
2018-01-19T12:15:41.446Z,87.35
2018-01-19T12:16:51.523Z,87.73
2018-01-19T12:18:01.565Z,87.06
2018-01-19T12:19:11.105Z,87.06
2018-01-19T12:20:21.177Z,86.77
2018-01-19T12:21:30.964Z,87.15
2018-01-19T12:22:41.069Z,87.25
2018-01-19T12:23:51.187Z,86.96
2018-01-19T12:25:01.249Z,87.25
2018-01-19T12:26:11.308Z,87.25
2018-01-19T12:27:21.359Z,87.35
2018-01-19T12:28:31.204Z,86.87
2018-01-19T12:29:41.302Z,87.15
2018-01-19T12:30:51.380Z,86.96
2018-01-19T12:32:01.182Z,86.77
2018-01-19T12:33:11.309Z,86.77
2018-01-19T12:34:21.423Z,86.68
2018-01-19T12:35:31.512Z,86.68
2018-01-19T12:36:41.589Z,86.68
2018-01-19T12:37:51.685Z,86.82
2018-01-19T12:39:01.767Z,86.72
2018-01-19T12:40:11.932Z,86.91
2018-01-19T12:41:22.091Z,87.01
2018-01-19T12:42:32.216Z,87.01
2018-01-19T12:43:42.349Z,87.01
2018-01-19T12:44:52.451Z,86.24
2018-01-19T12:46:02.722Z,84.28
2018-01-19T12:47:12.525Z,81.92
2018-01-19T12:48:22.680Z,80.51
2018-01-19T12:49:32.961Z,79.63
2018-01-19T12:50:42.932Z,78.75
2018-01-19T12:51:53.042Z,77.76
2018-01-19T12:53:03.432Z,78.03
2018-01-19T12:54:13.556Z,80.69
2018-01-19T12:55:23.459Z,83.03
2018-01-19T12:56:33.634Z,84.25
2018-01-19T12:57:43.730Z,86.31
2018-01-19T12:58:53.270Z,85.21
2018-01-19T13:00:03.085Z,82.23
2018-01-19T13:01:14.112Z,80.43
2018-01-19T13:02:23.659Z,79.46
2018-01-19T13:03:33.235Z,78.86
2018-01-19T13:04:43.343Z,79
2018-01-19T13:05:53.450Z,79.67
2018-01-19T13:07:04.395Z,81.99
2018-01-19T13:08:14.609Z,84.08
2018-01-19T13:09:24.758Z,85.53
2018-01-19T13:10:34.857Z,86.88
2018-01-19T13:11:45.036Z,86.94
2018-01-19T13:12:55.193Z,86.94
2018-01-19T13:14:05.257Z,86.41
2018-01-19T13:15:15.397Z,86.61
2018-01-19T13:16:25.222Z,86.61
2018-01-19T13:17:35.032Z,86.04
2018-01-19T13:18:44.900Z,85.46
2018-01-19T13:19:54.983Z,85.36
2018-01-19T13:21:05.061Z,86.04
2018-01-19T13:22:14.643Z,86.32
2018-01-19T13:23:24.435Z,86.41
2018-01-19T13:24:35.349Z,85.99
2018-01-19T13:25:45.397Z,86.47
2018-01-19T13:26:55.460Z,86.23
2018-01-19T13:28:05.528Z,86.61
2018-01-19T13:29:15.340Z,87
2018-01-19T13:30:26.912Z,87.29
2018-01-19T13:31:36.978Z,87.38
2018-01-19T13:32:47.055Z,87.29
2018-01-19T13:33:56.851Z,86.86
2018-01-19T13:35:06.931Z,87.34
2018-01-19T13:36:17.015Z,87.05
2018-01-19T13:37:26.801Z,87.24
2018-01-19T13:38:36.605Z,87.77
2018-01-19T13:39:47.642Z,87.68
2018-01-19T13:40:57.722Z,87.68
2018-01-19T13:42:07.843Z,87.77
2018-01-19T13:43:17.914Z,88.49
2018-01-19T13:44:28.008Z,88.92
2018-01-19T13:45:38.093Z,89.88
2018-01-19T13:46:48.187Z,90.41
2018-01-19T13:47:58.323Z,90.31
2018-01-19T13:49:08.128Z,90.08
2018-01-19T13:50:18.199Z,90.26
2018-01-19T13:51:28.270Z,90.89
2018-01-19T13:52:38.393Z,90.5
2018-01-19T13:53:48.499Z,90.46
2018-01-19T13:54:58.596Z,90.46
2018-01-19T13:56:08.649Z,90.08
2018-01-19T13:57:18.751Z,90.13
2018-01-19T13:58:28.620Z,90.03
2018-01-19T13:59:38.749Z,90.13
2018-01-19T14:00:48.566Z,89.94
2018-01-19T14:01:58.104Z,90.13
2018-01-19T14:03:08.179Z,89.89
2018-01-19T14:04:17.959Z,89.99
2018-01-19T14:05:27.612Z,89.8
2018-01-19T14:06:37.749Z,89.61
2018-01-19T14:07:47.842Z,89.42
2018-01-19T14:08:57.648Z,89.51
2018-01-19T14:10:07.698Z,89.42
2018-01-19T14:11:17.569Z,88.85
2018-01-19T14:12:27.412Z,88.75
2018-01-19T14:13:37.534Z,88.75
2018-01-19T14:14:47.605Z,88.66
2018-01-19T14:15:57.412Z,88.94
2018-01-19T14:17:07.492Z,88.94
2018-01-19T14:18:17.298Z,89.23
2018-01-19T14:19:27.099Z,88.37
2018-01-19T14:20:37.171Z,87.99
2018-01-19T14:21:46.967Z,87.9
2018-01-19T14:22:57.093Z,87.04
2018-01-19T14:24:06.891Z,87.42
2018-01-19T14:25:16.959Z,87.32
2018-01-19T14:26:27.047Z,87.61
2018-01-19T14:27:36.952Z,87.52
2018-01-19T14:28:47.047Z,87.04
2018-01-19T14:29:57.149Z,87.32
2018-01-19T14:31:07.230Z,87.23
2018-01-19T14:32:17.317Z,87.52
2018-01-19T14:33:27.396Z,87.9
2018-01-19T14:34:37.460Z,87.8
2018-01-19T14:35:47.569Z,87.99
2018-01-19T14:36:57.391Z,87.8
2018-01-19T14:38:07.198Z,87.8
2018-01-19T14:39:16.755Z,87.9
2018-01-19T14:40:26.822Z,87.99
2018-01-19T14:41:36.878Z,87.9
2018-01-19T14:42:46.920Z,88.18
2018-01-19T14:43:57.012Z,88.18
2018-01-19T14:45:06.536Z,88.18
2018-01-19T14:46:16.466Z,88.09
2018-01-19T14:47:26.335Z,88.37
2018-01-19T14:48:36.385Z,88.66
2018-01-19T14:49:46.684Z,89.09
2018-01-19T14:50:56.487Z,89
2018-01-19T14:52:06.348Z,88.71
2018-01-19T14:53:16.663Z,88.71
2018-01-19T14:54:26.713Z,89.09
2018-01-19T14:55:36.780Z,89
2018-01-19T14:56:46.603Z,89
2018-01-19T14:57:56.877Z,88.9
2018-01-19T14:59:07.036Z,88.9
2018-01-19T15:00:17.099Z,89.09
2018-01-19T15:01:27.154Z,89.09
2018-01-19T15:02:36.696Z,89.14
2018-01-19T15:03:47.050Z,88.76
2018-01-19T15:04:56.866Z,89.04
2018-01-19T15:06:06.920Z,88.38
2018-01-19T15:07:16.977Z,88.76
2018-01-19T15:08:27.032Z,88.67
2018-01-19T15:09:36.887Z,88.47
2018-01-19T15:10:46.953Z,88.76
2018-01-19T15:11:56.770Z,89.04
2018-01-19T15:13:06.841Z,88.95
2018-01-19T15:14:16.905Z,88.95
2018-01-19T15:15:27.004Z,88.67
2018-01-19T15:16:37.071Z,88.85
2018-01-19T15:17:47.147Z,88.95
2018-01-19T15:18:56.945Z,88.57
2018-01-19T15:20:07.028Z,88.95
2018-01-19T15:21:16.834Z,88.85
2018-01-19T15:22:26.643Z,88.76
2018-01-19T15:23:36.747Z,88.85
2018-01-19T15:24:46.835Z,88.67
2018-01-19T15:25:56.902Z,88.95
2018-01-19T15:27:06.762Z,89.14
2018-01-19T15:28:16.835Z,89.23
2018-01-19T15:29:26.895Z,89.14
2018-01-19T15:30:36.966Z,89.23
2018-01-19T15:31:47.039Z,88.85
2018-01-19T15:32:57.148Z,88.85
2018-01-19T15:34:06.954Z,88.85
2018-01-19T15:35:16.767Z,88.76